Terminal Aerodrome Forecast
Issued by NWS Melbourne, FL

Current Version | Previous Version | Text Only | Print | Product List | Glossary On
Versions: 1 2 3 4 5 6 7 8 9 10 11 12 13 14
000
FTUS42 KMLB 230500 RRA
TAFDAB
TAF
KDAB 230552Z 2306/2406 10010G18KT P6SM -DZ SCT025 BKN035 OVC050
      TEMPO 2309/2312 5SM -RA BR
     FM231500 16013G20KT P6SM SCT015 BKN035
      TEMPO 2315/2318 BKN025
     FM231900 17014G22KT P6SM VCSH BKN035 BKN060
     FM240200 17005KT P6SM SCT035 BKN200=

USA.gov is the U.S. government's official web portal to all federal, state and local government web resources and services.